Time;durP1;ratioP1;P1;durP2;ratioP2;P2;SDS_P1;SDS_P2;PMS_P1;PMS_P2;Temp;Humidity;BMP_temperature;BMP_pressure;BME280_temperature;BME280_humidity;BME280_pressure;Samples;Min_cycle;Max_cycle;Signal;HPM_P1;HPM_P2
2022/11/11 00:01:43;;;;;;;;;;;12.30;99.90;;;;;;5106599;28;20252;-63
2022/11/11 00:04:09;;;;;;;;;;;12.30;99.90;;;;;;5072969;28;19924;-63
2022/11/11 00:06:34;;;;;;;;;;;12.20;99.90;;;;;;5073334;28;19928;-63
2022/11/11 00:09:00;;;;;;;;;;;12.20;99.90;;;;;;5072861;28;19981;-63
2022/11/11 00:11:25;;;;;;;;;;;12.20;99.90;;;;;;5073546;28;20221;-63
2022/11/11 00:13:52;;;;;;;;;;;12.20;99.90;;;;;;5073349;28;19924;-63
2022/11/11 00:16:18;;;;;;;;;;;12.20;99.90;;;;;;5071444;28;19931;-64
2022/11/11 00:27:04;;;;;;;;;;;12.10;99.90;;;;;;5071663;28;19925;-64
2022/11/11 00:29:30;;;;;;;;;;;12.10;99.90;;;;;;5072823;28;20023;-63
2022/11/11 00:34:39;;;;;;;;;;;12.10;99.90;;;;;;5071819;28;19980;-63
2022/11/11 00:37:05;;;;;;;;;;;12.10;99.90;;;;;;5071156;28;19968;-63
2022/11/11 00:39:30;;;;;;;;;;;12.10;99.90;;;;;;5072585;28;19925;-64
2022/11/11 00:41:56;;;;;;;;;;;12.00;99.90;;;;;;5072835;28;20019;-65
2022/11/11 00:44:22;;;;;;;;;;;12.10;99.90;;;;;;5105193;28;20028;-63
2022/11/11 00:52:16;;;;;;;;;;;12.10;99.90;;;;;;5070250;28;20028;-64
2022/11/11 00:54:41;;;;;;;;;;;12.10;99.90;;;;;;5072202;28;20015;-63
2022/11/11 00:57:07;;;;;;;;;;;12.00;99.90;;;;;;5072009;28;19924;-63
2022/11/11 00:59:33;;;;;;;;;;;12.10;99.90;;;;;;5072677;28;19924;-63
2022/11/11 01:01:59;;;;;;;;;;;12.10;99.90;;;;;;5104708;28;20368;-65
2022/11/11 01:04:24;;;;;;;;;;;12.00;99.90;;;;;;5072260;28;19929;-64
2022/11/11 01:06:50;;;;;;;;;;;12.10;99.90;;;;;;5071422;28;19973;-64
2022/11/11 01:09:15;;;;;;;;;;;12.10;99.90;;;;;;5071668;28;19929;-64
2022/11/11 01:11:41;;;;;;;;;;;12.00;99.90;;;;;;5071042;28;19935;-63
2022/11/11 01:14:06;;;;;;;;;;;12.00;99.90;;;;;;5071812;28;19924;-64
2022/11/11 01:16:32;;;;;;;;;;;12.10;99.90;;;;;;5072122;28;19924;-63
2022/11/11 01:18:57;;;;;;;;;;;12.00;99.90;;;;;;5103942;28;19928;-62
2022/11/11 01:21:24;;;;;;;;;;;12.40;99.90;;;;;;5071159;28;20394;-64
2022/11/11 01:23:50;;;;;;;;;;;12.00;99.90;;;;;;5071991;28;20066;-64
2022/11/11 01:26:19;;;;;;;;;;;12.10;99.90;;;;;;5071578;28;19932;-64
2022/11/11 01:28:47;;;;;;;;;;;12.10;99.90;;;;;;5070634;28;20441;-65
2022/11/11 01:31:14;;;;;;;;;;;12.00;99.90;;;;;;5071412;28;20303;-64
2022/11/11 01:33:39;;;;;;;;;;;12.00;99.90;;;;;;5104870;28;20285;-64
2022/11/11 01:36:15;;;;;;;;;;;12.00;99.90;;;;;;5072019;28;19932;-67
2022/11/11 01:38:44;;;;;;;;;;;12.00;99.90;;;;;;5071741;28;19924;-64
2022/11/11 01:43:55;;;;;;;;;;;12.00;99.90;;;;;;5071832;28;20307;-64
2022/11/11 01:46:30;;;;;;;;;;;12.00;99.90;;;;;;5070309;28;19924;-63
2022/11/11 01:49:18;;;;;;;;;;;12.00;99.90;;;;;;5071506;28;20445;-63
2022/11/11 01:51:43;;;;;;;;;;;12.00;99.90;;;;;;5071179;28;19990;-63
2022/11/11 01:54:25;;;;;;;;;;;12.00;99.90;;;;;;5070283;28;20062;-67
2022/11/11 01:57:01;;;;;;;;;;;12.00;99.90;;;;;;5071681;28;20016;-63
2022/11/11 01:59:27;;;;;;;;;;;12.00;99.90;;;;;;5071349;28;19924;-64
2022/11/11 02:01:52;;;;;;;;;;;12.00;99.90;;;;;;5104061;28;19932;-63
2022/11/11 02:07:04;;;;;;;;;;;12.00;99.90;;;;;;5071604;28;19931;-64
2022/11/11 02:09:30;;;;;;;;;;;12.00;99.90;;;;;;5071214;28;20052;-63
2022/11/11 02:14:44;;;;;;;;;;;12.00;99.90;;;;;;5071509;28;19925;-64
2022/11/11 02:17:12;;;;;;;;;;;12.00;99.90;;;;;;5071405;28;19978;-63
2022/11/11 02:19:42;;;;;;;;;;;12.00;99.90;;;;;;5069703;28;20004;-63
2022/11/11 02:22:10;;;;;;;;;;;12.00;99.90;;;;;;5070434;28;19928;-63
2022/11/11 02:24:36;;;;;;;;;;;12.00;99.90;;;;;;5070933;28;19928;-64
2022/11/11 02:27:02;;;;;;;;;;;12.00;99.90;;;;;;5070249;28;20058;-63
2022/11/11 02:29:28;;;;;;;;;;;12.00;99.90;;;;;;5070753;28;20452;-63
2022/11/11 02:31:55;;;;;;;;;;;12.00;99.90;;;;;;5086856;28;19925;-64
2022/11/11 02:34:27;;;;;;;;;;;12.00;99.90;;;;;;5069981;28;19925;-63
2022/11/11 02:36:52;;;;;;;;;;;12.00;99.90;;;;;;5071502;28;19924;-64
2022/11/11 02:39:18;;;;;;;;;;;12.00;99.90;;;;;;5070423;28;20015;-64
2022/11/11 02:41:55;;;;;;;;;;;12.00;99.90;;;;;;5086774;28;19924;-64
2022/11/11 02:44:21;;;;;;;;;;;12.00;99.90;;;;;;5103666;28;19925;-65
2022/11/11 02:46:46;;;;;;;;;;;11.90;99.90;;;;;;5069839;28;19932;-64
2022/11/11 02:49:12;;;;;;;;;;;12.00;99.90;;;;;;5070970;28;19960;-65
2022/11/11 02:51:38;;;;;;;;;;;11.90;99.90;;;;;;5069379;28;19974;-64
2022/11/11 02:54:03;;;;;;;;;;;11.90;99.90;;;;;;5071194;28;20015;-63
2022/11/11 02:59:13;;;;;;;;;;;12.00;99.90;;;;;;5071155;28;19982;-65
2022/11/11 03:01:38;;;;;;;;;;;11.90;99.90;;;;;;5070584;28;19925;-65
2022/11/11 03:04:04;;;;;;;;;;;11.90;99.90;;;;;;5070043;28;19924;-64
2022/11/11 03:06:30;;;;;;;;;;;11.90;99.90;;;;;;5086147;28;19925;-63
2022/11/11 03:08:55;;;;;;;;;;;11.90;99.90;;;;;;5070933;28;19924;-63
2022/11/11 03:11:27;;;;;;;;;;;11.90;99.90;;;;;;5070320;28;20363;-63
2022/11/11 03:13:56;;;;;;;;;;;11.80;99.90;;;;;;5071646;28;19978;-65
2022/11/11 03:19:06;;;;;;;;;;;11.70;99.90;;;;;;5072624;28;19932;-63
2022/11/11 03:21:31;;;;;;;;;;;11.70;99.90;;;;;;5072509;28;19924;-63
2022/11/11 03:23:57;;;;;;;;;;;11.70;99.90;;;;;;5074315;28;19932;-64
2022/11/11 03:26:22;;;;;;;;;;;11.70;99.90;;;;;;5073782;28;19924;-66
2022/11/11 03:28:48;;;;;;;;;;;11.70;99.90;;;;;;5074238;28;19931;-63
2022/11/11 03:31:14;;;;;;;;;;;11.70;99.90;;;;;;5073592;28;19931;-62
2022/11/11 03:33:40;;;;;;;;;;;11.60;99.90;;;;;;5106578;28;20376;-62
2022/11/11 03:36:05;;;;;;;;;;;11.60;99.90;;;;;;5107073;28;19963;-63
2022/11/11 03:38:31;;;;;;;;;;;11.60;99.90;;;;;;5106329;28;19924;-64
2022/11/11 03:40:57;;;;;;;;;;;11.60;99.90;;;;;;5073990;28;20081;-63
2022/11/11 03:43:24;;;;;;;;;;;11.60;99.90;;;;;;5073857;28;19932;-67
2022/11/11 03:45:50;;;;;;;;;;;11.60;99.90;;;;;;5106641;28;20007;-63
2022/11/11 03:48:16;;;;;;;;;;;11.60;99.90;;;;;;5072551;28;19931;-63
2022/11/11 03:50:41;;;;;;;;;;;11.60;99.90;;;;;;5072830;28;19925;-62
2022/11/11 03:53:07;;;;;;;;;;;11.60;99.90;;;;;;5073597;28;19925;-62
2022/11/11 03:55:33;;;;;;;;;;;11.50;99.90;;;;;;5106196;28;19967;-63
2022/11/11 03:57:58;;;;;;;;;;;11.60;99.90;;;;;;5089412;28;19925;-63
2022/11/11 04:00:26;;;;;;;;;;;11.50;99.90;;;;;;5073567;28;20001;-64
2022/11/11 04:11:13;;;;;;;;;;;11.50;99.90;;;;;;5072316;28;19925;-63
2022/11/11 04:16:26;;;;;;;;;;;11.40;99.90;;;;;;5073387;28;20232;-64
2022/11/11 04:21:50;;;;;;;;;;;11.40;99.90;;;;;;5049221;28;20011;-65
2022/11/11 04:27:03;;;;;;;;;;;11.40;99.90;;;;;;5072219;28;19931;-64
2022/11/11 04:29:29;;;;;;;;;;;11.40;99.90;;;;;;5071541;28;19924;-64
2022/11/11 04:34:47;;;;;;;;;;;11.40;99.90;;;;;;5072685;28;19946;-63
2022/11/11 04:37:13;;;;;;;;;;;11.40;99.90;;;;;;5072993;28;20048;-64
2022/11/11 04:42:22;;;;;;;;;;;11.40;99.90;;;;;;5072669;28;19979;-63
2022/11/11 04:47:32;;;;;;;;;;;11.40;99.90;;;;;;5072748;28;19947;-66
2022/11/11 04:49:58;;;;;;;;;;;11.40;99.90;;;;;;5071408;28;20363;-63
2022/11/11 04:52:26;;;;;;;;;;;11.40;99.90;;;;;;5072633;28;20367;-63
2022/11/11 04:57:43;;;;;;;;;;;11.40;99.90;;;;;;5072144;28;19924;-67
2022/11/11 05:00:10;;;;;;;;;;;11.30;99.90;;;;;;5072247;28;19925;-64
2022/11/11 05:05:20;;;;;;;;;;;11.40;99.90;;;;;;5072417;28;19931;-64
2022/11/11 05:10:30;;;;;;;;;;;11.40;99.90;;;;;;5085640;28;19930;-62
2022/11/11 05:21:19;;;;;;;;;;;11.30;99.90;;;;;;5104453;28;19925;-64
2022/11/11 05:21:20;;;;;;;;;;;11.30;99.90;;;;;;5072100;28;20342;-64
2022/11/11 05:26:30;;;;;;;;;;;11.20;99.90;;;;;;5071810;28;20069;-64
2022/11/11 05:28:56;;;;;;;;;;;11.20;99.90;;;;;;5069688;28;20011;-63
2022/11/11 05:31:21;;;;;;;;;;;11.20;99.90;;;;;;5071700;28;19931;-64
2022/11/11 05:33:47;;;;;;;;;;;11.20;99.90;;;;;;5071479;28;19997;-64
2022/11/11 05:36:12;;;;;;;;;;;11.20;99.90;;;;;;5071348;28;19940;-64
2022/11/11 05:38:38;;;;;;;;;;;11.20;99.90;;;;;;5103629;28;20011;-63
2022/11/11 05:41:04;;;;;;;;;;;11.20;99.90;;;;;;5071209;28;19946;-63
2022/11/11 05:43:29;;;;;;;;;;;11.20;99.90;;;;;;5071634;28;19931;-63
2022/11/11 05:45:55;;;;;;;;;;;11.20;99.90;;;;;;5071310;28;19967;-63
2022/11/11 05:48:20;;;;;;;;;;;11.20;99.90;;;;;;5070599;28;20383;-63
2022/11/11 05:50:46;;;;;;;;;;;11.20;99.90;;;;;;5071559;28;20347;-63
2022/11/11 05:53:11;;;;;;;;;;;11.20;99.90;;;;;;5087262;28;19924;-63
2022/11/11 05:55:37;;;;;;;;;;;11.10;99.90;;;;;;5071526;28;19925;-65
2022/11/11 05:58:02;;;;;;;;;;;11.10;99.90;;;;;;5070245;28;20524;-63
2022/11/11 06:00:28;;;;;;;;;;;11.10;99.90;;;;;;5071484;28;19970;-63
2022/11/11 06:02:54;;;;;;;;;;;11.10;99.90;;;;;;5071150;28;19931;-62
2022/11/11 06:05:19;;;;;;;;;;;11.00;99.90;;;;;;5070456;28;19925;-62
2022/11/11 06:07:45;;;;;;;;;;;11.00;99.90;;;;;;5070047;28;19978;-66
2022/11/11 06:13:01;;;;;;;;;;;10.90;99.90;;;;;;5071144;28;19966;-62
2022/11/11 06:15:27;;;;;;;;;;;10.80;99.90;;;;;;5087087;28;19924;-63
2022/11/11 06:17:53;;;;;;;;;;;10.90;99.90;;;;;;5103833;28;19924;-65
2022/11/11 06:20:18;;;;;;;;;;;10.90;99.90;;;;;;5070780;28;19931;-62
2022/11/11 06:22:56;;;;;;;;;;;10.90;99.90;;;;;;5103934;28;19976;-64
2022/11/11 06:28:09;;;;;;;;;;;10.90;99.90;;;;;;5070678;28;20307;-64
2022/11/11 06:30:35;;;;;;;;;;;10.90;99.90;;;;;;5071239;28;19928;-64
2022/11/11 06:33:01;;;;;;;;;;;11.00;99.90;;;;;;5103083;28;20000;-62
2022/11/11 06:35:26;;;;;;;;;;;11.00;99.90;;;;;;5071137;28;19925;-63
2022/11/11 06:37:52;;;;;;;;;;;11.10;99.90;;;;;;5069472;28;19924;-64
2022/11/11 06:40:17;;;;;;;;;;;11.10;99.90;;;;;;5070763;28;19925;-64
2022/11/11 06:42:43;;;;;;;;;;;11.10;99.90;;;;;;5071054;28;19964;-64
2022/11/11 06:45:09;;;;;;;;;;;11.20;99.90;;;;;;5086643;28;20549;-64
2022/11/11 06:47:34;;;;;;;;;;;11.20;99.90;;;;;;5071300;28;19951;-64
2022/11/11 06:50:00;;;;;;;;;;;11.20;99.90;;;;;;5073089;28;19931;-64
2022/11/11 06:52:25;;;;;;;;;;;11.20;99.90;;;;;;5074841;28;19929;-64
2022/11/11 06:54:51;;;;;;;;;;;11.20;99.90;;;;;;5073721;28;19928;-67
2022/11/11 06:57:17;;;;;;;;;;;11.20;99.90;;;;;;5090263;28;19944;-64
2022/11/11 06:59:42;;;;;;;;;;;11.20;99.90;;;;;;5107437;28;19932;-63
2022/11/11 07:02:12;;;;;;;;;;;11.20;99.90;;;;;;5072950;28;20023;-66
2022/11/11 07:04:37;;;;;;;;;;;11.30;99.90;;;;;;5074313;28;19924;-64
2022/11/11 07:07:03;;;;;;;;;;;11.30;99.90;;;;;;5073664;28;19969;-64
2022/11/11 07:09:28;;;;;;;;;;;11.20;99.90;;;;;;5073169;28;19924;-64
2022/11/11 07:11:54;;;;;;;;;;;11.30;99.90;;;;;;5072948;28;19936;-67
2022/11/11 07:14:19;;;;;;;;;;;11.30;99.90;;;;;;5074336;28;19931;-65
2022/11/11 07:16:45;;;;;;;;;;;11.30;99.90;;;;;;5074457;28;19924;-64
2022/11/11 07:19:11;;;;;;;;;;;11.30;99.90;;;;;;5073507;28;19931;-64
2022/11/11 07:21:36;;;;;;;;;;;11.30;99.90;;;;;;5074332;28;20022;-64
2022/11/11 07:24:02;;;;;;;;;;;11.30;99.90;;;;;;5072997;28;20287;-64
2022/11/11 07:26:27;;;;;;;;;;;11.30;99.90;;;;;;5074127;28;19968;-64
2022/11/11 07:28:53;;;;;;;;;;;11.30;99.90;;;;;;5074240;28;19924;-62
2022/11/11 07:31:18;;;;;;;;;;;11.30;99.90;;;;;;5073291;28;19924;-63
2022/11/11 07:33:44;;;;;;;;;;;11.30;99.90;;;;;;5073875;28;20399;-63
2022/11/11 07:36:09;;;;;;;;;;;11.30;99.90;;;;;;5072771;28;20286;-62
2022/11/11 07:38:35;;;;;;;;;;;11.30;99.90;;;;;;5072959;28;19924;-64
2022/11/11 07:41:01;;;;;;;;;;;11.40;99.90;;;;;;5106360;28;19925;-64
2022/11/11 07:43:26;;;;;;;;;;;11.30;99.90;;;;;;5073788;28;19924;-63
2022/11/11 07:45:52;;;;;;;;;;;11.30;99.90;;;;;;5089476;28;19982;-64
2022/11/11 07:48:17;;;;;;;;;;;11.40;99.90;;;;;;5073315;28;19935;-62
2022/11/11 07:50:43;;;;;;;;;;;11.30;99.90;;;;;;5106385;28;20424;-64
2022/11/11 07:53:08;;;;;;;;;;;11.40;99.90;;;;;;5073534;28;20291;-63
2022/11/11 07:55:34;;;;;;;;;;;11.30;99.90;;;;;;5056058;28;19934;-63
2022/11/11 07:58:01;;;;;;;;;;;11.40;99.90;;;;;;5106315;28;19966;-65
2022/11/11 08:00:27;;;;;;;;;;;11.40;99.90;;;;;;5106235;28;20401;-63
2022/11/11 08:02:52;;;;;;;;;;;11.40;99.90;;;;;;5089368;28;19967;-63
2022/11/11 08:05:18;;;;;;;;;;;11.40;99.90;;;;;;5073153;28;20028;-64
2022/11/11 08:07:43;;;;;;;;;;;11.40;99.90;;;;;;5089345;28;19972;-64
2022/11/11 08:10:10;;;;;;;;;;;11.40;99.90;;;;;;5073167;28;20023;-63
2022/11/11 08:15:20;;;;;;;;;;;11.40;99.90;;;;;;5072141;28;19924;-63
2022/11/11 08:17:45;;;;;;;;;;;11.40;99.90;;;;;;5088869;28;19925;-65
2022/11/11 08:20:11;;;;;;;;;;;11.50;99.90;;;;;;5072486;28;20034;-63
2022/11/11 08:22:38;;;;;;;;;;;11.40;99.90;;;;;;5073222;28;19935;-64
2022/11/11 08:25:07;;;;;;;;;;;11.50;99.90;;;;;;5073243;28;19928;-64
2022/11/11 08:27:33;;;;;;;;;;;11.50;99.90;;;;;;5073041;28;20046;-62
2022/11/11 08:29:59;;;;;;;;;;;11.50;99.90;;;;;;5073043;28;20256;-63
2022/11/11 08:32:24;;;;;;;;;;;11.50;99.90;;;;;;5072207;28;19924;-63
2022/11/11 08:34:50;;;;;;;;;;;11.50;99.90;;;;;;5072848;28;19928;-63
2022/11/11 08:37:15;;;;;;;;;;;11.50;99.90;;;;;;5072762;28;19928;-65
2022/11/11 08:39:41;;;;;;;;;;;11.50;99.90;;;;;;5073014;28;19972;-62
2022/11/11 08:42:06;;;;;;;;;;;11.50;99.90;;;;;;5105223;28;19925;-65
2022/11/11 08:44:32;;;;;;;;;;;11.50;99.90;;;;;;5072379;28;19931;-64
2022/11/11 08:46:57;;;;;;;;;;;11.50;99.90;;;;;;5072711;28;19930;-63
2022/11/11 08:49:23;;;;;;;;;;;11.50;99.90;;;;;;5072036;28;20015;-62
2022/11/11 08:51:49;;;;;;;;;;;11.50;99.90;;;;;;5072212;28;19925;-64
2022/11/11 08:54:14;;;;;;;;;;;11.50;99.90;;;;;;5072284;28;19928;-64
2022/11/11 08:56:40;;;;;;;;;;;11.50;99.90;;;;;;5072833;28;20037;-64
2022/11/11 08:59:06;;;;;;;;;;;11.50;99.90;;;;;;5072516;28;19933;-63
2022/11/11 09:01:31;;;;;;;;;;;11.60;99.90;;;;;;5072108;28;19924;-63
2022/11/11 09:03:57;;;;;;;;;;;11.60;99.90;;;;;;5104719;28;19987;-64
2022/11/11 09:06:22;;;;;;;;;;;11.50;99.90;;;;;;5072023;28;19924;-64
2022/11/11 09:08:48;;;;;;;;;;;11.50;99.90;;;;;;5072297;28;19924;-66
2022/11/11 09:11:13;;;;;;;;;;;11.60;99.90;;;;;;5103703;28;19925;-64
2022/11/11 09:13:39;;;;;;;;;;;11.50;99.90;;;;;;5071979;28;19925;-63
2022/11/11 09:16:05;;;;;;;;;;;11.50;99.90;;;;;;5072182;28;19928;-63
2022/11/11 09:18:31;;;;;;;;;;;11.50;99.90;;;;;;5070887;28;19921;-63
2022/11/11 09:20:58;;;;;;;;;;;11.50;99.90;;;;;;5072327;28;19932;-63
2022/11/11 09:23:24;;;;;;;;;;;11.60;99.90;;;;;;5072009;28;20284;-63
2022/11/11 09:25:50;;;;;;;;;;;11.60;99.90;;;;;;5071973;28;19924;-62
2022/11/11 09:28:15;;;;;;;;;;;11.60;99.90;;;;;;5071898;28;19924;-62
2022/11/11 09:30:41;;;;;;;;;;;11.60;99.90;;;;;;5071995;28;19977;-64
2022/11/11 09:33:07;;;;;;;;;;;11.50;99.90;;;;;;5071707;28;19924;-64
2022/11/11 09:35:32;;;;;;;;;;;11.60;99.90;;;;;;5070745;28;19924;-63
2022/11/11 09:37:59;;;;;;;;;;;11.60;99.90;;;;;;5071975;28;20324;-62
2022/11/11 09:40:26;;;;;;;;;;;11.60;99.90;;;;;;5071235;28;20007;-63
2022/11/11 09:43:11;;;;;;;;;;;11.60;99.90;;;;;;5070697;28;19928;-63
2022/11/11 09:45:52;;;;;;;;;;;11.50;99.90;;;;;;5069563;28;19924;-62
2022/11/11 09:48:20;;;;;;;;;;;11.50;99.90;;;;;;5071449;28;19930;-62
2022/11/11 09:50:53;;;;;;;;;;;11.50;99.90;;;;;;5071529;28;19924;-63
2022/11/11 09:53:24;;;;;;;;;;;11.60;99.90;;;;;;5103727;28;19925;-64
2022/11/11 09:56:11;;;;;;;;;;;11.50;99.90;;;;;;5087415;28;20010;-63
2022/11/11 09:58:38;;;;;;;;;;;11.50;99.90;;;;;;5071357;28;20015;-63
2022/11/11 10:01:08;;;;;;;;;;;11.50;99.90;;;;;;5071519;28;20043;-63
2022/11/11 10:03:35;;;;;;;;;;;11.50;99.90;;;;;;5087216;28;19925;-63
2022/11/11 10:06:21;;;;;;;;;;;11.50;99.90;;;;;;5071626;28;19925;-63
2022/11/11 10:09:07;;;;;;;;;;;11.50;99.90;;;;;;5070523;28;19962;-63
2022/11/11 10:11:47;;;;;;;;;;;11.40;99.90;;;;;;5070209;28;19947;-63
2022/11/11 10:14:13;;;;;;;;;;;11.50;99.90;;;;;;5071706;28;20265;-63
2022/11/11 10:16:47;;;;;;;;;;;11.40;99.90;;;;;;5070027;28;19931;-63
2022/11/11 10:19:22;;;;;;;;;;;11.40;99.90;;;;;;5069934;28;19931;-65
2022/11/11 10:22:10;;;;;;;;;;;11.40;99.90;;;;;;5071484;28;20027;-63
2022/11/11 10:24:40;;;;;;;;;;;11.40;99.90;;;;;;5074108;28;20271;-63
2022/11/11 10:27:18;;;;;;;;;;;11.30;99.90;;;;;;5074508;28;19924;-64
2022/11/11 10:29:44;;;;;;;;;;;11.40;99.90;;;;;;5075127;28;19930;-64
2022/11/11 10:32:15;;;;;;;;;;;11.40;99.90;;;;;;5090898;28;19925;-64
2022/11/11 10:34:40;;;;;;;;;;;11.40;99.90;;;;;;5074941;28;20551;-65
2022/11/11 10:37:23;;;;;;;;;;;11.40;99.90;;;;;;5074006;28;19931;-64
2022/11/11 10:39:57;;;;;;;;;;;11.40;99.90;;;;;;5075067;28;19924;-64
2022/11/11 10:42:23;;;;;;;;;;;11.40;99.90;;;;;;5074657;28;19925;-64
2022/11/11 10:44:50;;;;;;;;;;;11.40;99.90;;;;;;5075099;28;19970;-64
2022/11/11 10:47:34;;;;;;;;;;;11.50;99.90;;;;;;5073589;28;20011;-64
2022/11/11 10:50:11;;;;;;;;;;;11.50;99.90;;;;;;5074982;28;19931;-63
2022/11/11 10:52:42;;;;;;;;;;;11.50;99.90;;;;;;5074619;28;20328;-63
2022/11/11 10:55:11;;;;;;;;;;;11.40;99.90;;;;;;5074896;28;19925;-64
2022/11/11 10:57:52;;;;;;;;;;;11.50;99.90;;;;;;5074349;28;19925;-64
2022/11/11 11:00:17;;;;;;;;;;;11.50;99.90;;;;;;5107701;28;20338;-65
2022/11/11 11:03:01;;;;;;;;;;;11.50;99.90;;;;;;5106964;28;19924;-64
2022/11/11 11:05:47;;;;;;;;;;;11.50;99.90;;;;;;5107097;28;20351;-68
2022/11/11 11:08:25;;;;;;;;;;;11.50;99.90;;;;;;5073525;28;19931;-64
2022/11/11 11:10:52;;;;;;;;;;;11.60;99.90;;;;;;5074446;28;19932;-63
2022/11/11 11:13:21;;;;;;;;;;;11.60;99.90;;;;;;5073031;28;19924;-64
2022/11/11 11:15:51;;;;;;;;;;;11.60;99.90;;;;;;5107049;28;20363;-63
2022/11/11 11:18:17;;;;;;;;;;;11.60;99.90;;;;;;5107526;28;19924;-64
2022/11/11 11:21:03;;;;;;;;;;;11.60;99.90;;;;;;5072572;28;19929;-63
2022/11/11 11:23:36;;;;;;;;;;;11.60;99.90;;;;;;5107052;28;19927;-64
2022/11/11 11:26:04;;;;;;;;;;;11.60;99.90;;;;;;5074482;28;19920;-63
2022/11/11 11:28:30;;;;;;;;;;;11.60;99.90;;;;;;5107068;28;19925;-64
2022/11/11 11:31:00;;;;;;;;;;;11.70;99.90;;;;;;5074415;28;19932;-64
2022/11/11 11:33:26;;;;;;;;;;;11.70;99.90;;;;;;5090291;28;19921;-64
2022/11/11 11:35:51;;;;;;;;;;;11.70;99.90;;;;;;5088990;28;20014;-64
2022/11/11 11:38:17;;;;;;;;;;;11.70;99.90;;;;;;5106873;28;19970;-64
2022/11/11 11:40:43;;;;;;;;;;;11.70;99.90;;;;;;5072793;28;19924;-64
2022/11/11 11:43:24;;;;;;;;;;;11.70;99.90;;;;;;5072900;28;19924;-64
2022/11/11 11:45:58;;;;;;;;;;;11.80;99.90;;;;;;5072709;28;20279;-65
2022/11/11 11:48:26;;;;;;;;;;;11.80;99.90;;;;;;5072748;28;20394;-64
2022/11/11 11:50:55;;;;;;;;;;;11.80;99.90;;;;;;5073285;28;20363;-64
2022/11/11 11:53:26;;;;;;;;;;;11.80;99.90;;;;;;5073758;28;19924;-65
2022/11/11 11:55:55;;;;;;;;;;;11.80;99.90;;;;;;5106432;28;20615;-65
2022/11/11 11:58:34;;;;;;;;;;;11.80;99.90;;;;;;5072853;28;19925;-64
2022/11/11 12:01:02;;;;;;;;;;;11.80;99.90;;;;;;5073947;28;20285;-64
2022/11/11 12:03:43;;;;;;;;;;;11.80;99.90;;;;;;5072651;28;20338;-64
2022/11/11 12:06:28;;;;;;;;;;;11.90;99.90;;;;;;5073219;28;20414;-63
2022/11/11 12:09:05;;;;;;;;;;;11.90;99.90;;;;;;5072270;28;19929;-64
2022/11/11 12:11:43;;;;;;;;;;;11.80;99.90;;;;;;5089459;28;20014;-64
2022/11/11 12:14:28;;;;;;;;;;;11.90;99.90;;;;;;5072209;28;19978;-65
2022/11/11 12:16:57;;;;;;;;;;;11.90;99.90;;;;;;5072228;28;19931;-65
2022/11/11 12:19:28;;;;;;;;;;;11.80;99.90;;;;;;5073146;28;19932;-65
2022/11/11 12:22:07;;;;;;;;;;;11.80;99.90;;;;;;5072117;28;19929;-65
2022/11/11 12:24:41;;;;;;;;;;;11.90;99.90;;;;;;5106206;28;19924;-66
2022/11/11 12:27:21;;;;;;;;;;;11.80;99.90;;;;;;5073155;28;19931;-65
2022/11/11 12:30:00;;;;;;;;;;;11.80;99.90;;;;;;5105796;28;20294;-64
2022/11/11 12:32:45;;;;;;;;;;;11.90;99.90;;;;;;5072893;28;20023;-64
2022/11/11 12:35:32;;;;;;;;;;;11.90;99.90;;;;;;5105616;28;19928;-66
2022/11/11 12:38:00;;;;;;;;;;;12.00;99.90;;;;;;5071530;28;19935;-63
2022/11/11 12:40:34;;;;;;;;;;;12.10;99.90;;;;;;5073074;28;20011;-67
2022/11/11 12:43:18;;;;;;;;;;;12.10;99.90;;;;;;5105378;28;19924;-66
2022/11/11 12:45:46;;;;;;;;;;;12.10;99.90;;;;;;5087824;28;19925;-66
2022/11/11 12:48:12;;;;;;;;;;;12.10;99.90;;;;;;5072092;28;20363;-65
2022/11/11 12:50:40;;;;;;;;;;;12.10;99.90;;;;;;5105605;28;20083;-66
2022/11/11 12:53:18;;;;;;;;;;;12.10;99.90;;;;;;5071360;28;20415;-65
2022/11/11 12:55:56;;;;;;;;;;;12.00;99.90;;;;;;5071111;28;20482;-65
2022/11/11 12:58:33;;;;;;;;;;;12.00;99.90;;;;;;5072557;28;20268;-65
2022/11/11 13:01:17;;;;;;;;;;;11.90;99.90;;;;;;5071343;28;20236;-66
2022/11/11 13:04:03;;;;;;;;;;;11.90;99.90;;;;;;5071363;28;19928;-66
2022/11/11 13:06:34;;;;;;;;;;;12.00;99.90;;;;;;5070363;28;20350;-65
2022/11/11 13:09:09;;;;;;;;;;;11.90;99.90;;;;;;5070936;28;20068;-65
2022/11/11 13:11:41;;;;;;;;;;;11.90;99.90;;;;;;5054132;28;19929;-64
2022/11/11 13:14:17;;;;;;;;;;;11.90;99.90;;;;;;5070896;28;20268;-64
2022/11/11 13:16:43;;;;;;;;;;;11.90;99.90;;;;;;5105069;28;19932;-63
2022/11/11 13:19:35;;;;;;;;;;;11.90;99.90;;;;;;5097981;27;20005;-64
2022/11/11 13:22:05;;;;;;;;;;;11.90;99.90;;;;;;5086795;28;19936;-64
2022/11/11 13:24:31;;;;;;;;;;;11.90;99.90;;;;;;5088017;28;19935;-64
2022/11/11 13:27:00;;;;;;;;;;;11.90;99.90;;;;;;5087559;28;19925;-64
2022/11/11 13:29:41;;;;;;;;;;;11.90;99.90;;;;;;5086806;28;19972;-64
2022/11/11 13:32:09;;;;;;;;;;;11.80;99.90;;;;;;5085749;28;20306;-63
2022/11/11 13:34:35;;;;;;;;;;;11.90;99.90;;;;;;5069818;28;19983;-64
2022/11/11 13:37:03;;;;;;;;;;;11.80;99.90;;;;;;5086281;28;20392;-64
2022/11/11 13:39:49;;;;;;;;;;;11.80;99.90;;;;;;5086213;28;20337;-63
2022/11/11 13:42:23;;;;;;;;;;;11.80;99.90;;;;;;5085583;28;19924;-63
2022/11/11 13:44:54;;;;;;;;;;;11.80;99.90;;;;;;5091992;28;19939;-64
2022/11/11 13:47:23;;;;;;;;;;;11.80;99.90;;;;;;5084890;28;20419;-64
2022/11/11 13:49:55;;;;;;;;;;;11.80;99.90;;;;;;5086936;28;20011;-69
2022/11/11 13:52:40;;;;;;;;;;;11.80;99.90;;;;;;5082170;28;20058;-64
2022/11/11 13:55:08;;;;;;;;;;;11.80;99.90;;;;;;5078007;28;20271;-65
2022/11/11 13:57:44;;;;;;;;;;;11.80;99.90;;;;;;5089662;28;20011;-64
2022/11/11 14:00:15;;;;;;;;;;;11.70;99.90;;;;;;5091196;28;20360;-63
2022/11/11 14:02:41;;;;;;;;;;;11.70;99.90;;;;;;5084602;28;19932;-65
2022/11/11 14:05:09;;;;;;;;;;;11.70;99.90;;;;;;5085460;28;19924;-64
2022/11/11 14:07:47;;;;;;;;;;;11.70;99.90;;;;;;5103341;28;20369;-66
2022/11/11 14:10:16;;;;;;;;;;;11.70;99.90;;;;;;5095785;28;20360;-65
2022/11/11 14:12:44;;;;;;;;;;;11.80;99.90;;;;;;5085859;28;19941;-65
2022/11/11 14:15:30;;;;;;;;;;;11.80;99.90;;;;;;5086270;28;20074;-66
2022/11/11 14:17:56;;;;;;;;;;;11.80;99.90;;;;;;5080695;28;19933;-66
2022/11/11 14:20:33;;;;;;;;;;;11.80;99.90;;;;;;5085232;28;19928;-66
2022/11/11 14:23:17;;;;;;;;;;;11.80;99.90;;;;;;5084986;28;19928;-66
2022/11/11 14:25:43;;;;;;;;;;;11.80;99.90;;;;;;5086922;28;19978;-64
2022/11/11 14:28:38;;;;;;;;;;;11.80;99.90;;;;;;5084979;28;19959;-63
2022/11/11 14:31:13;;;;;;;;;;;11.80;99.90;;;;;;5057965;28;19967;-63
2022/11/11 14:33:54;;;;;;;;;;;11.70;99.90;;;;;;5071348;28;19955;-64
2022/11/11 14:36:38;;;;;;;;;;;11.70;99.90;;;;;;5058894;28;19975;-63
2022/11/11 14:39:12;;;;;;;;;;;11.70;99.90;;;;;;5059807;28;20003;-63
2022/11/11 14:41:44;;;;;;;;;;;11.70;99.90;;;;;;5072991;28;19932;-63
2022/11/11 14:44:28;;;;;;;;;;;11.70;99.90;;;;;;5068094;28;19929;-64
2022/11/11 14:47:02;;;;;;;;;;;11.70;99.90;;;;;;5076863;28;19927;-65
2022/11/11 14:49:43;;;;;;;;;;;11.70;99.90;;;;;;5072141;28;20289;-65
2022/11/11 14:52:31;;;;;;;;;;;11.60;99.90;;;;;;5069239;28;20370;-65
2022/11/11 14:55:09;;;;;;;;;;;11.70;99.90;;;;;;5069564;28;19928;-64
2022/11/11 14:57:39;;;;;;;;;;;11.60;99.90;;;;;;5069989;28;19929;-65
2022/11/11 15:00:11;;;;;;;;;;;11.60;99.90;;;;;;5067244;28;20019;-65
2022/11/11 15:02:41;;;;;;;;;;;11.60;99.90;;;;;;5072393;28;19924;-68
2022/11/11 15:05:11;;;;;;;;;;;11.60;99.90;;;;;;5069200;28;19936;-65
2022/11/11 15:07:52;;;;;;;;;;;11.60;99.90;;;;;;5073400;28;19928;-65
2022/11/11 15:10:34;;;;;;;;;;;11.60;99.90;;;;;;5095797;28;19937;-65
2022/11/11 15:13:18;;;;;;;;;;;11.60;99.90;;;;;;5071163;28;19925;-69
2022/11/11 15:15:44;;;;;;;;;;;11.60;99.90;;;;;;5069890;28;20004;-64
2022/11/11 15:18:17;;;;;;;;;;;11.60;99.90;;;;;;5084027;28;19924;-65
2022/11/11 15:20:52;;;;;;;;;;;11.60;99.90;;;;;;5074052;28;19924;-64
2022/11/11 15:23:51;;;;;;;;;;;11.60;99.90;;;;;;5090596;28;19932;-65
2022/11/11 15:26:22;;;;;;;;;;;11.60;99.90;;;;;;5038761;28;19925;-63
2022/11/11 15:28:47;;;;;;;;;;;11.60;99.90;;;;;;5098483;28;19976;-64
2022/11/11 15:31:22;;;;;;;;;;;11.60;99.90;;;;;;5073487;28;20001;-64
2022/11/11 15:33:50;;;;;;;;;;;11.60;99.90;;;;;;5092224;28;20309;-63
2022/11/11 15:36:25;;;;;;;;;;;11.60;99.90;;;;;;5073397;28;19935;-62
2022/11/11 15:38:51;;;;;;;;;;;11.60;99.90;;;;;;5073061;28;19935;-63
2022/11/11 15:41:22;;;;;;;;;;;11.60;99.90;;;;;;5090708;28;19930;-64
2022/11/11 15:43:48;;;;;;;;;;;11.60;99.90;;;;;;5091037;28;19977;-65
2022/11/11 15:46:20;;;;;;;;;;;11.60;99.90;;;;;;5073209;28;19924;-64
2022/11/11 15:48:46;;;;;;;;;;;11.60;99.90;;;;;;5078667;28;19981;-64
2022/11/11 15:51:32;;;;;;;;;;;11.60;99.90;;;;;;5089524;28;19928;-64